Latest Weather Observations for Deniliquin

IDN60801

Issued at 12:33 pm EDT Sunday 21 December 2014 (issued every 30 minutes, with the page automatically refreshed every 10 minutes)

About weather observations | Map of weather stations | Latest weather observations for NSW | Other Formats
Station Details ID: 074258 Name: DENILIQUIN AIRPORT AWS Lat: -35.56 Lon: 144.95 Height: 94.0 m
Data from the previous 72 hours. | See also: Recent months at Deniliquin
Date/Time
EDT
Temp
°C
App
Temp
°C
Dew
Point
Rel
Hum
%
Delta-T
°C
Wind Press
QNH
hPa
Press
MSL
hPa
Rain
since 9 am
mm
Dir
 
Spd
km/h
Gust
km/h
Spd
kts
Gust
kts
21/12:30pm 31.1 28.1 4.0 18 14.0 WNW 9 15 5 8 1013.9 1013.6 0.0
21/12:00pm 30.4 27.8 4.2 19 13.5 SW 7 15 4 8 1014.2 1013.9 0.0
21/11:30am 30.2 26.9 4.8 20 13.2 ENE 11 20 6 11 1014.4 1014.1 0.0
21/11:00am 29.3 26.2 5.4 22 12.5 NNW 11 20 6 11 1014.4 1014.1 0.0
21/10:30am 28.8 25.2 5.0 22 12.3 E 13 22 7 12 1014.5 1014.2 0.0
21/10:00am 27.3 23.9 6.1 26 11.1 NE 13 19 7 10 1014.8 1014.5 0.0
21/09:30am 26.6 24.1 8.1 31 10.0 ENE 11 15 6 8 1015.0 1014.7 0.0
21/08:30am 23.3 20.1 8.6 39 7.9 ENE 15 20 8 11 1014.9 1014.6 0.0
21/08:00am 22.0 19.4 7.8 40 7.4 E 11 15 6 8 1014.9 1014.6 0.0
21/07:30am 20.0 17.8 7.7 45 6.3 SE 9 11 5 6 1015.1 1014.8 0.0
21/07:00am 17.6 15.9 8.5 55 4.7 SE 7 9 4 5 1014.4 1014.1 0.0
21/06:30am 15.7 13.5 8.0 60 3.9 ESE 9 11 5 6 1014.1 1013.8 0.0
21/06:00am 15.2 13.0 7.7 61 3.8 ESE 9 11 5 6 1013.6 1013.3 0.0
21/05:30am 15.5 13.6 7.5 59 4.0 SE 7 9 4 5 1013.6 1013.3 0.0
21/05:00am 15.9 13.7 7.9 59 4.0 ESE 9 11 5 6 1013.4 1013.1 0.0
21/04:30am 15.4 13.5 7.4 59 4.0 ESE 7 9 4 5 1013.2 1012.9 0.0
21/04:00am 15.9 13.6 7.4 57 4.2 SE 9 11 5 6 1013.3 1013.0 0.0
21/03:30am 16.9 14.3 7.8 55 4.6 SE 11 13 6 7 1013.4 1013.1 0.0
21/03:00am 17.2 14.5 7.5 53 4.9 SE 11 13 6 7 1013.5 1013.2 0.0
21/02:30am 17.4 14.7 7.5 52 5.0 SE 11 15 6 8 1013.7 1013.4 0.0
21/02:00am 17.5 14.8 7.3 51 5.1 SSE 11 13 6 7 1014.0 1013.7 0.0
21/01:30am 17.7 15.3 7.2 50 5.3 SE 9 13 5 7 1014.2 1013.9 0.0
21/01:00am 18.0 15.2 7.1 49 5.5 SE 11 13 6 7 1014.4 1014.1 0.0
21/12:30am 17.9 14.4 7.3 50 5.4 SSE 15 19 8 10 1014.6 1014.3 0.0
21/12:00am 18.4 16.7 7.5 49 5.5 E 6 7 3 4 1014.3 1014.0 0.0
 
Date/Time
EDT
Temp
°C
App
Temp
°C
Dew
Point
Rel
Hum
%
Delta-T
°C
Wind Press
QNH
hPa
Press
MSL
hPa
Rain
since 9 am
mm
Dir
 
Spd
km/h
Gust
km/h
Spd
kts
Gust
kts
20/11:30pm 19.0 17.2 7.1 46 6.0 ESE 6 7 3 4 1014.5 1014.2 0.0
20/11:00pm 20.2 19.6 7.2 43 6.6 CALM 0 0 0 0 1014.6 1014.3 0.0
20/10:30pm 21.3 20.1 4.8 34 8.1 CALM 0 0 0 0 1014.5 1014.2 0.0
20/08:30pm 25.4 22.0 4.0 25 10.7 S 11 13 6 7 1014.0 1013.7 0.0
20/08:00pm 27.7 23.8 3.4 21 12.2 SSW 13 17 7 9 1013.9 1013.6 0.0
20/07:30pm 28.5 24.6 3.4 20 12.6 SSW 13 17 7 9 1013.6 1013.3 0.0
20/07:00pm 28.8 24.2 3.6 20 12.8 SSW 17 24 9 13 1013.4 1013.1 0.0
20/06:30pm 28.8 24.6 3.6 20 12.8 SW 15 24 8 13 1013.4 1013.1 0.0
20/05:30pm 29.0 24.4 3.8 20 12.8 SW 17 26 9 14 1013.5 1013.2 0.0
20/05:00pm 28.8 24.3 4.3 21 12.6 SW 17 24 9 13 1013.8 1013.5 0.0
20/04:30pm 29.0 24.9 4.5 21 12.6 SW 15 24 8 13 1014.1 1013.8 0.0
20/04:00pm 28.7 23.6 4.2 21 12.5 WSW 20 26 11 14 1014.6 1014.3 0.0
20/03:30pm 28.5 23.7 4.7 22 12.3 SW 19 26 10 14 1014.9 1014.6 0.0
20/03:00pm 27.8 23.8 4.8 23 11.8 S 15 26 8 14 1015.2 1014.9 0.0
20/02:30pm 27.7 22.6 4.1 22 12.0 SSW 20 32 11 17 1015.9 1015.5 0.0
20/02:00pm 26.3 21.3 3.5 23 11.3 SW 19 32 10 17 1016.3 1015.9 0.0
20/01:30pm 26.1 21.2 4.0 24 11.1 WSW 19 30 10 16 1016.6 1016.2 0.0
20/01:00pm 25.5 20.7 4.6 26 10.5 SW 19 33 10 18 1017.0 1016.6 0.0
20/12:30pm 25.3 20.4 3.9 25 10.6 SSW 19 33 10 18 1017.5 1017.1 0.0
20/12:00pm 24.1 19.1 3.4 26 10.1 SSW 19 26 10 14 1017.8 1017.4 0.0
20/11:30am 23.0 17.6 2.5 26 9.8 SW 20 32 11 17 1018.1 1017.7 0.0
20/11:00am 22.2 17.0 3.3 29 9.1 SW 20 30 11 16 1018.3 1017.9 0.0
20/10:30am 21.0 16.4 3.7 32 8.3 WSW 17 24 9 13 1018.5 1018.1 0.0
20/10:00am 19.9 16.2 4.4 36 7.5 WSW 13 26 7 14 1018.6 1018.2 0.0
20/09:30am 18.4 15.0 4.2 39 6.8 SSW 11 19 6 10 1018.8 1018.4 0.0
20/09:00am 18.1 14.5 5.0 42 6.3 SSW 13 17 7 9 1018.8 1018.4 0.0
20/08:30am 17.1 13.1 5.1 45 5.8 SSE 15 19 8 10 1018.5 1018.1 0.0
20/08:00am 15.9 11.6 5.2 49 5.1 S 17 22 9 12 1018.2 1017.8 0.0
20/07:30am 14.9 11.5 5.7 54 4.4 S 13 19 7 10 1017.8 1017.4 0.0
20/07:00am 13.0 10.5 6.4 64 3.2 SSW 9 13 5 7 1017.5 1017.1 0.0
20/06:30am 10.8 8.6 6.0 72 2.2 SW 7 9 4 5 1017.3 1016.9 0.0
20/06:00am 10.5 7.9 5.9 73 2.1 SW 9 11 5 6 1017.2 1016.8 0.0
20/05:30am 10.6 7.9 5.6 71 2.3 SW 9 11 5 6 1017.1 1016.7 0.0
20/05:00am 11.2 8.5 5.7 69 2.6 SW 9 13 5 7 1016.9 1016.5 0.0
20/04:30am 11.8 9.0 5.2 64 3.1 SSW 9 9 5 5 1016.8 1016.4 0.0
20/04:00am 12.3 9.5 5.2 62 3.3 SSW 9 11 5 6 1016.7 1016.3 0.0
20/03:30am 12.8 9.2 5.0 59 3.6 SSW 13 15 7 8 1016.7 1016.3 0.0
20/03:00am 13.6 9.9 4.7 55 4.1 S 13 15 7 8 1016.7 1016.3 0.0
20/02:30am 14.0 10.6 4.0 51 4.6 S 11 13 6 7 1017.0 1016.6 0.0
20/02:00am 14.9 11.1 3.7 47 5.1 S 13 17 7 9 1017.2 1016.8 0.0
20/01:30am 15.8 11.2 3.6 44 5.6 SSE 17 19 9 10 1017.5 1017.1 0.0
20/01:00am 16.2 11.9 3.3 42 5.9 SSE 15 19 8 10 1017.4 1017.0 0.0
20/12:30am 17.0 11.9 3.0 39 6.4 SSE 19 24 10 13 1017.5 1017.1 0.0
20/12:00am 17.3 12.6 2.9 38 6.6 SSE 17 20 9 11 1017.6 1017.2 0.0
 
Date/Time
EDT
Temp
°C
App
Temp
°C
Dew
Point
Rel
Hum
%
Delta-T
°C
Wind Press
QNH
hPa
Press
MSL
hPa
Rain
since 9 am
mm
Dir
 
Spd
km/h
Gust
km/h
Spd
kts
Gust
kts
19/11:30pm 17.4 13.1 3.0 38 6.6 SSE 15 17 8 9 1017.6 1017.2 0.0
19/11:00pm 18.0 13.5 2.3 35 7.2 SSE 15 19 8 10 1017.6 1017.2 0.0
19/10:30pm 17.7 13.1 1.7 34 7.2 SSE 15 17 8 9 1017.4 1017.0 0.0
19/10:00pm 18.6 13.9 1.2 31 7.8 SW 15 17 8 9 1017.2 1016.8 0.0
19/09:30pm 19.1 14.4 1.1 30 8.1 SW 15 17 8 9 1017.0 1016.6 0.0
19/09:00pm 20.2 15.1 0.6 27 8.8 SW 17 20 9 11 1016.7 1016.3 0.0
19/08:30pm 21.3 15.7 -0.1 24 9.6 SW 19 26 10 14 1016.7 1016.3 0.0
19/08:00pm 22.6 15.3 -0.2 22 10.3 SW 28 35 15 19 1016.5 1016.1 0.0
19/07:30pm 23.3 16.2 -0.9 20 10.8 SSW 26 37 14 20 1016.2 1015.8 0.0
19/07:00pm 23.7 15.9 -0.6 20 11.0 SW 30 39 16 21 1015.9 1015.5 0.0
19/06:30pm 24.4 17.4 -0.7 19 11.4 SW 26 39 14 21 1015.6 1015.2 0.0
19/06:00pm 24.0 16.2 -1.0 19 11.2 SW 30 43 16 23 1015.3 1015.0 0.0
19/05:30pm 24.3 16.8 -1.5 18 11.5 SW 28 48 15 26 1015.2 1014.9 0.0
19/05:28pm 24.4 17.0 -0.7 19 11.4 SW 28 48 15 26 1015.1 1014.8 0.0
19/05:00pm 24.5 17.0 -1.3 18 11.6 SW 28 39 15 21 1015.1 1014.8 0.0
19/04:30pm 24.1 16.8 -0.2 20 11.1 WSW 28 39 15 21 1015.1 1014.8 0.0
19/04:08pm 24.2 16.9 -0.2 20 11.2 SW 28 46 15 25 1015.2 1014.9 0.0
19/04:00pm 24.4 18.2 0.0 20 11.2 SW 22 35 12 19 1015.3 1015.0 0.0
19/03:30pm 23.9 16.3 -1.8 18 11.4 SW 28 37 15 20 1015.6 1015.2 0.0
19/03:00pm 23.3 16.0 -0.2 21 10.7 SW 28 46 15 25 1015.7 1015.3 0.0
19/02:51pm 23.2 15.7 -1.7 19 11.0 SW 28 48 15 26 1015.9 1015.5 0.0
19/02:30pm 23.3 15.9 -0.9 20 10.8 SW 28 39 15 21 1015.9 1015.5 0.0
19/02:00pm 22.6 15.3 -0.2 22 10.3 SW 28 39 15 21 1016.1 1015.7 0.0
19/01:30pm 22.2 14.9 0.1 23 10.0 WSW 28 39 15 21 1016.4 1016.0 0.0
19/01:00pm 21.7 15.0 -0.9 22 10.0 SW 24 35 13 19 1016.5 1016.1 0.0
19/12:37pm 21.9 14.9 -0.8 22 10.1 SSW 26 46 14 25 1016.7 1016.3 0.0
19/12:30pm 21.8 15.2 -0.2 23 9.9 SW 24 44 13 24 1016.4 1016.0 0.0
19/12:00pm 20.5 13.6 0.4 26 9.0 SW 26 41 14 22 1016.7 1016.3 0.0
19/11:30am 19.9 12.4 1.4 29 8.4 SSW 30 41 16 22 1016.8 1016.4 0.0
19/11:00am 19.4 12.9 2.7 33 7.8 SW 26 41 14 22 1016.7 1016.3 0.0
19/10:30am 17.9 11.5 3.0 37 6.9 SW 26 41 14 22 1016.9 1016.5 0.0
19/10:00am 17.6 11.7 3.9 40 6.4 SSW 24 33 13 18 1017.1 1016.7 0.0
19/09:30am 16.5 9.4 3.6 42 6.0 SSW 30 37 16 20 1017.3 1016.9 0.0
19/09:00am 15.8 8.8 3.9 45 5.5 SSW 30 37 16 20 1017.2 1016.8 0.0
19/08:30am 14.9 8.2 5.4 53 4.5 SW 30 35 16 19 1016.9 1016.5 0.0
19/08:00am 14.0 8.5 5.9 58 3.9 SW 24 30 13 16 1016.7 1016.3 0.0
19/07:30am 12.8 8.1 6.2 64 3.1 SW 20 28 11 15 1016.2 1015.8 0.0
19/07:00am 11.6 7.5 6.3 70 2.5 WSW 17 24 9 13 1015.7 1015.3 0.0
19/06:30am 9.1 5.2 5.3 77 1.7 WSW 15 17 8 9 1015.4 1015.1 0.0
19/06:00am 9.0 4.6 5.0 76 1.8 WSW 17 19 9 10 1015.1 1014.8 0.0
19/05:30am 9.7 6.2 5.3 74 2.0 WSW 13 19 7 10 1014.6 1014.3 0.0
19/05:00am 10.0 6.5 5.6 74 2.0 WSW 13 17 7 9 1014.4 1014.1 0.0
19/04:30am 9.8 6.2 5.2 73 2.1 WSW 13 13 7 7 1014.1 1013.8 0.0
19/04:00am 10.2 7.1 5.4 72 2.2 WSW 11 15 6 8 1013.8 1013.5 0.0
19/03:30am 11.1 8.0 5.4 68 2.6 SW 11 13 6 7 1013.4 1013.1 0.0
19/03:00am 11.7 8.6 5.6 66 2.8 SW 11 15 6 8 1013.3 1013.0 0.0
19/02:30am 12.7 8.5 5.8 63 3.3 SW 17 20 9 11 1013.3 1013.0 0.0
19/02:00am 13.4 8.9 6.0 61 3.5 SW 19 22 10 12 1013.0 1012.7 0.0
19/01:30am 14.1 9.4 6.2 59 3.8 SSW 20 24 11 13 1013.0 1012.7 0.0
19/01:00am 14.5 10.0 6.8 60 3.8 SW 20 26 11 14 1013.0 1012.7 0.0
19/12:30am 14.7 10.9 7.7 63 3.5 SW 17 20 9 11 1012.9 1012.6 0.0
19/12:00am 14.7 11.6 7.3 61 3.7 SW 13 15 7 8 1012.6 1012.3 0.0
 
Date/Time
EDT
Temp
°C
App
Temp
°C
Dew
Point
Rel
Hum
%
Delta-T
°C
Wind Press
QNH
hPa
Press
MSL
hPa
Rain
since 9 am
mm
Dir
 
Spd
km/h
Gust
km/h
Spd
kts
Gust
kts
18/11:30pm 15.5 12.4 7.3 58 4.1 SSW 13 17 7 9 1012.5 1012.2 0.0
18/11:00pm 16.6 13.1 7.3 54 4.7 SW 15 19 8 10 1012.5 1012.2 0.0
18/10:30pm 17.5 13.1 7.5 52 5.1 SSW 20 26 11 14 1012.3 1012.0 0.0
18/10:00pm 18.1 14.4 8.1 52 5.1 SSW 17 20 9 11 1011.9 1011.6 0.0
18/09:30pm 18.8 14.2 8.2 50 5.5 SSW 22 26 12 14 1011.6 1011.3 0.0
18/09:00pm 19.4 14.0 7.8 47 6.0 SSW 26 35 14 19 1011.3 1011.0 0.0
18/08:30pm 21.1 14.2 6.6 39 7.4 SSW 32 46 17 25 1010.6 1010.3 0.0
18/08:04pm 23.0 15.9 5.4 32 8.9 SW 32 50 17 27 1009.8 1009.4 0.0
18/08:00pm 22.8 16.7 4.8 31 9.0 SW 26 37 14 20 1009.6 1009.2 0.0
18/07:30pm 23.5 15.3 4.5 29 9.4 WSW 37 46 20 25 1008.9 1008.5 0.0
18/07:00pm 24.1 15.2 5.0 29 9.6 SW 41 52 22 28 1008.5 1008.1 0.0
18/06:39pm 24.4 14.5 4.7 28 9.9 WSW 46 57 25 31 1008.1 1007.7 0.0
18/06:30pm 25.5 17.1 3.5 24 10.9 W 37 56 20 30 1007.9 1007.5 0.0
18/06:17pm 26.2 18.4 1.5 20 11.8 WSW 32 54 17 29 1007.8 1007.4 0.0
18/06:00pm 25.8 17.0 1.2 20 11.7 WSW 37 50 20 27 1007.5 1007.1 0.0
18/05:37pm 26.3 18.3 1.6 20 11.9 WSW 33 57 18 31 1007.4 1007.0 0.0
18/05:30pm 25.5 17.5 1.6 21 11.4 WSW 33 43 18 23 1007.4 1007.0 0.0
18/05:07pm 25.9 16.7 1.2 20 11.7 WSW 39 57 21 31 1007.2 1006.8 0.0
18/05:00pm 26.2 17.2 2.2 21 11.7 W 39 52 21 28 1007.3 1006.9 0.0
18/04:30pm 26.6 17.9 1.8 20 12.0 W 37 56 20 30 1007.2 1006.8 0.0
18/04:09pm 27.3 18.9 1.7 19 12.4 W 35 54 19 29 1006.8 1006.4 0.0
18/04:00pm 27.2 18.5 2.3 20 12.2 W 37 50 20 27 1006.9 1006.5 0.0
18/03:35pm 27.1 18.3 1.5 19 12.3 W 37 56 20 30 1006.7 1006.3 0.0
18/03:30pm 27.1 17.9 1.5 19 12.3 W 39 56 21 30 1006.7 1006.3 0.0
18/03:11pm 28.5 20.7 1.9 18 13.0 WNW 32 50 17 27 1006.6 1006.2 0.0
18/03:00pm 27.5 19.5 1.8 19 12.5 W 33 50 18 27 1006.6 1006.2 0.0
18/02:35pm 27.1 19.3 1.5 19 12.3 W 32 52 17 28 1006.7 1006.3 0.0
18/02:30pm 27.7 19.4 2.0 19 12.6 WNW 35 54 19 29 1006.7 1006.3 0.0
18/02:05pm 28.1 19.7 1.6 18 12.9 W 35 57 19 31 1006.7 1006.3 0.0
18/02:00pm 27.1 19.1 1.5 19 12.4 WNW 33 44 18 24 1006.8 1006.4 0.0
18/01:32pm 26.6 19.2 1.8 20 12.0 WNW 30 48 16 26 1007.1 1006.7 0.0
18/01:30pm 26.4 19.2 0.9 19 12.1 WNW 28 39 15 21 1007.1 1006.7 0.0
18/01:04pm 26.8 18.9 1.3 19 12.2 WNW 32 50 17 27 1007.2 1006.8 0.0
18/01:00pm 26.4 18.3 0.9 19 12.1 WNW 33 50 18 27 1007.1 1006.7 0.0

Other Formats:

Comma delimited format used in spreadsheet applications
http://www.bom.gov.au/fwo/IDN60801/IDN60801.95869.axf

JavaScript Object Notation format (JSON) in row-major order
http://www.bom.gov.au/fwo/IDN60801/IDN60801.95869.json